createdAt,value
2018-10-21T00:00:41.674Z,91.03
2018-10-21T00:03:11.237Z,90.60
2018-10-21T00:05:41.082Z,90.64
2018-10-21T00:08:10.647Z,90.88
2018-10-21T00:10:40.411Z,90.63
2018-10-21T00:13:10.213Z,90.28
2018-10-21T00:15:40.271Z,90.87
2018-10-21T00:18:09.763Z,91.32
2018-10-21T00:20:39.644Z,91.67
2018-10-21T00:23:09.389Z,91.41
2018-10-21T00:25:39.244Z,91.37
2018-10-21T00:28:09.262Z,91.22
2018-10-21T00:30:38.911Z,90.77
2018-10-21T00:33:10.040Z,90.91
2018-10-21T00:35:39.894Z,90.47
2018-10-21T00:38:09.563Z,90.82
2018-10-21T00:40:39.362Z,90.32
2018-10-21T00:43:09.303Z,90.41
2018-10-21T00:45:38.981Z,90.79
2018-10-21T00:48:08.704Z,90.56
2018-10-21T00:50:38.418Z,90.38
2018-10-21T00:53:08.169Z,89.99
2018-10-21T00:55:37.911Z,89.63
2018-10-21T00:58:07.604Z,89.59
2018-10-21T01:00:37.399Z,89.59
2018-10-21T01:03:07.376Z,90.59
2018-10-21T01:05:37.187Z,90.78
2018-10-21T01:08:07.146Z,89.51
2018-10-21T01:10:37.015Z,89.85
2018-10-21T01:13:06.858Z,89.44
2018-10-21T01:15:36.584Z,89.39
2018-10-21T01:18:06.922Z,89.73
2018-10-21T01:20:36.601Z,89.40
2018-10-21T01:23:06.477Z,89.13
2018-10-21T01:25:36.188Z,89.03
2018-10-21T01:28:06.407Z,89.02
2018-10-21T01:30:36.529Z,88.85
2018-10-21T01:33:06.728Z,88.26
2018-10-21T01:35:36.323Z,88.07
2018-10-21T01:38:06.120Z,87.67
2018-10-21T01:40:40.697Z,87.22
2018-10-21T01:43:11.542Z,87.23
2018-10-21T01:45:41.845Z,87.48
2018-10-21T01:48:12.556Z,87.74
2018-10-21T01:50:42.034Z,87.78
2018-10-21T01:53:12.620Z,88.19
2018-10-21T01:55:42.252Z,87.85
2018-10-21T01:58:12.012Z,88.24
2018-10-21T02:00:42.249Z,88.34
2018-10-21T02:03:12.155Z,88.92
2018-10-21T02:05:42.710Z,88.79
2018-10-21T02:08:12.629Z,89.15
2018-10-21T02:10:42.523Z,88.54
2018-10-21T02:13:12.226Z,88.33
2018-10-21T02:15:41.904Z,87.80
2018-10-21T02:18:11.642Z,88.14
2018-10-21T02:20:41.181Z,88.05
2018-10-21T02:23:10.866Z,89.03
2018-10-21T02:25:40.610Z,89.17
2018-10-21T02:28:10.658Z,88.48
2018-10-21T02:30:40.392Z,88.10
2018-10-21T02:33:10.309Z,88.54
2018-10-21T02:35:39.963Z,88.45
2018-10-21T02:38:09.711Z,88.70
2018-10-21T02:41:48.055Z,88.70
2018-10-21T02:44:20.177Z,88.14
2018-10-21T02:46:51.072Z,88.71
2018-10-21T02:49:21.375Z,89.44
2018-10-21T02:51:56.196Z,89.69
2018-10-21T02:54:27.179Z,89.74
2018-10-21T02:56:56.933Z,89.31
2018-10-21T02:59:27.030Z,88.19
2018-10-21T03:01:56.763Z,88.14
2018-10-21T03:04:26.493Z,88.40
2018-10-21T03:06:56.291Z,89.17
2018-10-21T03:09:26.049Z,89.76
2018-10-21T03:11:55.673Z,89.63
2018-10-21T03:14:25.364Z,90.20
2018-10-21T03:16:55.007Z,90.58
2018-10-21T03:19:24.771Z,90.79
2018-10-21T03:21:54.663Z,90.62
2018-10-21T03:24:24.459Z,90.73
2018-10-21T03:26:54.072Z,91.82
2018-10-21T03:29:23.704Z,90.96
2018-10-21T03:31:53.356Z,90.46
2018-10-21T03:34:23.152Z,90.90
2018-10-21T03:36:52.869Z,90.67
2018-10-21T03:39:22.402Z,91.00
2018-10-21T03:41:52.065Z,92.50
2018-10-21T03:44:21.742Z,92.73
2018-10-21T03:46:51.483Z,92.20
2018-10-21T03:49:21.041Z,92.63
2018-10-21T03:51:51.283Z,93.14
2018-10-21T03:54:21.013Z,93.10
2018-10-21T03:56:50.772Z,93.37
2018-10-21T03:59:20.358Z,93.37
2018-10-21T04:01:50.043Z,93.18
2018-10-21T04:04:19.912Z,93.45
2018-10-21T04:06:50.640Z,93.18
2018-10-21T04:09:20.108Z,93.03
2018-10-21T04:11:50.272Z,92.97
2018-10-21T04:14:20.413Z,92.90
2018-10-21T04:16:50.299Z,93.45
2018-10-21T04:19:19.946Z,93.50
2018-10-21T04:21:50.347Z,93.39
2018-10-21T04:24:19.981Z,94.46
2018-10-21T04:26:49.720Z,94.43
2018-10-21T04:29:20.173Z,94.40
2018-10-21T04:31:50.100Z,94.45
2018-10-21T04:34:19.751Z,94.09
2018-10-21T04:36:49.362Z,94.92
2018-10-21T04:39:30.693Z,95.24
2018-10-21T04:42:00.700Z,95.70
2018-10-21T04:44:30.535Z,95.39
2018-10-21T04:47:00.415Z,95.69
2018-10-21T04:49:30.392Z,95.78
2018-10-21T04:52:00.183Z,95.97
2018-10-21T04:54:33.856Z,96.08
2018-10-21T04:57:05.199Z,95.68
2018-10-21T04:59:35.277Z,95.33
2018-10-21T05:02:04.926Z,94.70
2018-10-21T05:04:34.599Z,94.09
2018-10-21T05:07:04.425Z,94.52
2018-10-21T05:09:34.245Z,94.31
2018-10-21T05:12:04.192Z,94.80
2018-10-21T05:14:33.932Z,95.08
2018-10-21T05:17:03.573Z,94.78
2018-10-21T05:19:33.351Z,94.15
2018-10-21T05:22:03.879Z,93.79
2018-10-21T05:24:33.542Z,93.48
2018-10-21T05:27:03.308Z,93.71
2018-10-21T05:29:33.158Z,93.74
2018-10-21T05:32:02.935Z,93.58
2018-10-21T05:34:32.731Z,93.62
2018-10-21T05:37:02.376Z,93.64
2018-10-21T05:39:32.382Z,91.59
2018-10-21T05:42:02.527Z,91.00
2018-10-21T05:44:32.227Z,91.06
2018-10-21T05:47:01.951Z,90.35
2018-10-21T05:49:31.699Z,89.68
2018-10-21T05:52:01.466Z,88.77
2018-10-21T05:54:31.329Z,88.87
2018-10-21T05:57:01.048Z,89.29
2018-10-21T05:59:30.827Z,88.48
2018-10-21T06:02:00.414Z,88.19
2018-10-21T06:04:30.289Z,87.97
2018-10-21T06:07:01.173Z,87.52
2018-10-21T06:09:30.927Z,87.47
2018-10-21T06:12:00.678Z,86.12
2018-10-21T06:14:30.435Z,84.93
2018-10-21T06:17:32.617Z,84.11
2018-10-21T06:20:07.741Z,83.50
2018-10-21T06:22:42.990Z,82.88
2018-10-21T06:25:12.625Z,82.63
2018-10-21T06:27:42.361Z,82.37
2018-10-21T06:30:13.017Z,82.63
2018-10-21T06:32:42.888Z,83.17
2018-10-21T06:35:12.636Z,82.72
2018-10-21T06:37:42.273Z,83.36
2018-10-21T06:40:12.729Z,82.35
2018-10-21T06:42:42.539Z,82.44
2018-10-21T06:45:12.905Z,81.55
2018-10-21T06:47:43.165Z,83.07
2018-10-21T06:50:20.785Z,81.29
2018-10-21T06:52:50.756Z,80.67
2018-10-21T06:55:20.462Z,81.69
2018-10-21T06:57:50.283Z,81.70
2018-10-21T07:00:20.005Z,81.44
2018-10-21T07:02:49.637Z,81.59
2018-10-21T07:05:30.197Z,81.49
2018-10-21T07:08:00.070Z,81.60
2018-10-21T07:10:29.823Z,81.68
2018-10-21T07:12:59.277Z,82.40
2018-10-21T07:15:28.943Z,82.40
2018-10-21T07:17:58.604Z,81.44
2018-10-21T07:20:28.412Z,80.85
2018-10-21T07:22:58.160Z,81.46
2018-10-21T07:25:27.973Z,80.96
2018-10-21T07:27:57.808Z,80.93
2018-10-21T07:30:27.619Z,80.76
2018-10-21T07:32:57.370Z,80.59
2018-10-21T07:35:27.180Z,81.65
2018-10-21T07:37:56.966Z,82.08
2018-10-21T07:40:26.668Z,82.45
2018-10-21T07:42:56.403Z,82.27
2018-10-21T07:45:26.149Z,82.66
2018-10-21T07:47:55.881Z,84.01
2018-10-21T07:50:25.696Z,85.06
2018-10-21T07:52:55.434Z,84.13
2018-10-21T07:55:25.341Z,83.40
2018-10-21T07:57:54.973Z,83.19
2018-10-21T08:00:24.924Z,84.01
2018-10-21T08:02:54.636Z,83.85
2018-10-21T08:05:35.298Z,83.30
2018-10-21T08:08:15.527Z,82.65
2018-10-21T08:10:45.275Z,82.39
2018-10-21T08:13:16.509Z,82.85
2018-10-21T08:15:46.374Z,83.52
2018-10-21T08:18:16.615Z,83.55
2018-10-21T08:20:47.568Z,83.69
2018-10-21T08:23:18.300Z,83.00
2018-10-21T08:25:49.422Z,82.81
2018-10-21T08:28:19.173Z,82.47
2018-10-21T08:30:48.877Z,82.26
2018-10-21T08:33:18.758Z,80.21
2018-10-21T08:35:48.343Z,81.52
2018-10-21T08:38:18.031Z,80.66
2018-10-21T08:40:47.796Z,81.05
2018-10-21T08:43:17.447Z,81.12
2018-10-21T08:45:47.190Z,81.59
2018-10-21T08:48:16.899Z,82.17
2018-10-21T08:50:46.614Z,82.75
2018-10-21T08:53:16.156Z,83.21
2018-10-21T08:55:45.911Z,82.35
2018-10-21T08:58:15.837Z,80.95
2018-10-21T09:00:45.729Z,81.37
2018-10-21T09:03:15.527Z,82.79
2018-10-21T09:05:45.414Z,83.04
2018-10-21T09:08:15.250Z,83.62
2018-10-21T09:10:45.171Z,85.48
2018-10-21T09:13:14.837Z,87.42
2018-10-21T09:15:44.324Z,89.30
2018-10-21T09:18:13.945Z,90.03
2018-10-21T09:20:43.740Z,91.47
2018-10-21T09:23:13.252Z,90.47
2018-10-21T09:25:43.091Z,90.68
2018-10-21T09:28:12.960Z,89.90
2018-10-21T09:30:42.613Z,89.07
2018-10-21T09:33:13.246Z,88.81
2018-10-21T09:35:44.906Z,88.84
2018-10-21T09:38:14.513Z,88.05
2018-10-21T09:40:44.163Z,87.74
2018-10-21T09:43:14.148Z,87.25
2018-10-21T09:45:43.799Z,86.07
2018-10-21T09:48:13.536Z,86.26
2018-10-21T09:50:44.090Z,85.92
2018-10-21T09:53:14.523Z,86.33
2018-10-21T09:55:44.384Z,85.82
2018-10-21T09:58:14.098Z,84.32
2018-10-21T10:00:48.655Z,84.58
2018-10-21T10:03:18.380Z,84.34
2018-10-21T10:05:48.161Z,84.34
2018-10-21T10:08:18.690Z,85.01
2018-10-21T10:10:48.405Z,82.71
2018-10-21T10:13:18.184Z,82.81
2018-10-21T10:15:47.687Z,83.04
2018-10-21T10:18:17.460Z,82.85
2018-10-21T10:20:47.239Z,82.81
2018-10-21T10:23:16.981Z,83.02
2018-10-21T10:25:46.684Z,81.29
2018-10-21T10:28:16.882Z,81.59
2018-10-21T10:30:47.089Z,80.97
2018-10-21T10:33:16.893Z,79.89
2018-10-21T10:35:46.615Z,79.39
2018-10-21T10:38:16.591Z,80.55
2018-10-21T10:40:46.226Z,76.60
2018-10-21T10:43:16.805Z,77.34
2018-10-21T10:45:46.569Z,76.59
2018-10-21T10:48:16.474Z,76.31
2018-10-21T10:50:46.228Z,76.00
2018-10-21T10:53:16.116Z,75.41
2018-10-21T10:55:50.609Z,75.29
2018-10-21T10:58:20.619Z,75.59
2018-10-21T11:00:50.298Z,74.62
2018-10-21T11:03:20.091Z,74.80
2018-10-21T11:05:49.840Z,73.11
2018-10-21T11:08:19.671Z,73.43
2018-10-21T11:10:49.354Z,72.70
2018-10-21T11:13:18.996Z,72.53
2018-10-21T11:15:48.526Z,72.14
2018-10-21T11:18:18.438Z,70.99
2018-10-21T11:20:48.176Z,69.75
2018-10-21T11:23:18.047Z,69.97
2018-10-21T11:25:47.511Z,70.07
2018-10-21T11:28:17.316Z,69.50
2018-10-21T11:30:46.970Z,69.28
2018-10-21T11:33:16.818Z,69.71
2018-10-21T11:35:46.742Z,69.18
2018-10-21T11:38:16.482Z,68.82
2018-10-21T11:40:46.280Z,68.15
2018-10-21T11:43:16.069Z,67.26
2018-10-21T11:45:45.872Z,67.25
2018-10-21T11:48:15.275Z,67.35
2018-10-21T11:50:45.824Z,67.34
2018-10-21T11:53:15.560Z,67.87
2018-10-21T11:55:45.299Z,68.33
2018-10-21T11:58:16.058Z,67.79
2018-10-21T12:00:46.943Z,67.13
2018-10-21T12:03:16.538Z,66.37
2018-10-21T12:05:46.331Z,66.12
2018-10-21T12:08:15.872Z,66.09
2018-10-21T12:10:45.451Z,65.06
2018-10-21T12:13:15.231Z,65.45
2018-10-21T12:15:44.787Z,65.93
2018-10-21T12:18:14.516Z,65.00
2018-10-21T12:20:44.206Z,64.50
2018-10-21T12:23:14.142Z,64.62
2018-10-21T12:25:43.769Z,64.17
2018-10-21T12:28:14.312Z,64.17
2018-10-21T12:30:43.905Z,63.86
2018-10-21T12:33:13.660Z,64.15
2018-10-21T12:35:43.297Z,64.10
2018-10-21T12:38:13.075Z,63.60
2018-10-21T12:40:42.906Z,63.28
2018-10-21T12:43:12.421Z,61.77
2018-10-21T12:45:42.108Z,61.93
2018-10-21T12:48:11.771Z,62.68
2018-10-21T12:50:41.547Z,61.36
2018-10-21T12:53:11.254Z,59.81
2018-10-21T12:55:45.919Z,60.08
2018-10-21T12:58:15.704Z,59.84
2018-10-21T13:00:45.405Z,58.87
2018-10-21T13:03:15.307Z,58.74
2018-10-21T13:05:45.099Z,59.38
2018-10-21T13:08:14.742Z,58.05
2018-10-21T13:10:44.699Z,58.50
2018-10-21T13:13:14.583Z,58.75
2018-10-21T13:15:44.465Z,58.20
2018-10-21T13:18:15.111Z,58.16
2018-10-21T13:20:44.862Z,57.40
2018-10-21T13:23:14.433Z,58.08
2018-10-21T13:25:44.218Z,57.83
2018-10-21T13:28:13.948Z,57.25
2018-10-21T13:30:43.647Z,57.57
2018-10-21T13:33:13.435Z,57.91
2018-10-21T13:35:43.262Z,57.67
2018-10-21T13:38:13.066Z,57.68
2018-10-21T13:40:42.894Z,57.12
2018-10-21T13:43:12.754Z,56.70
2018-10-21T13:45:42.566Z,57.35
2018-10-21T13:48:12.295Z,56.92
2018-10-21T13:50:42.063Z,56.41
2018-10-21T13:53:11.885Z,55.88
2018-10-21T13:55:41.295Z,56.38
2018-10-21T13:58:11.164Z,56.10
2018-10-21T14:00:41.015Z,56.96
2018-10-21T14:03:10.757Z,57.61
2018-10-21T14:05:40.376Z,56.96
2018-10-21T14:08:10.167Z,56.88
2018-10-21T14:10:39.876Z,57.01
2018-10-21T14:13:09.743Z,56.38
2018-10-21T14:15:39.529Z,57.10
2018-10-21T14:18:09.116Z,54.99
2018-10-21T14:20:38.951Z,54.99
2018-10-21T14:23:08.675Z,55.09
2018-10-21T14:25:38.602Z,55.30
2018-10-21T14:28:08.476Z,55.19
2018-10-21T14:30:38.225Z,54.74
2018-10-21T14:33:09.215Z,55.04
2018-10-21T14:35:38.784Z,55.91
2018-10-21T14:38:08.612Z,55.04
2018-10-21T14:40:38.358Z,55.19
2018-10-21T14:43:08.086Z,55.25
2018-10-21T14:45:38.596Z,55.57
2018-10-21T14:48:08.492Z,55.26
2018-10-21T14:50:38.266Z,55.42
2018-10-21T14:53:08.148Z,55.83
2018-10-21T14:55:37.861Z,55.99
2018-10-21T14:58:07.714Z,56.61
2018-10-21T15:00:37.688Z,56.42
2018-10-21T15:03:07.664Z,56.52
2018-10-21T15:05:37.529Z,56.08
2018-10-21T15:08:07.409Z,56.16
2018-10-21T15:10:37.304Z,57.00
2018-10-21T15:13:07.246Z,57.62
2018-10-21T15:15:37.091Z,57.29
2018-10-21T15:18:06.861Z,57.31
2018-10-21T15:20:36.799Z,57.81
2018-10-21T15:23:07.288Z,57.60
2018-10-21T15:25:36.984Z,58.23
2018-10-21T15:28:07.194Z,59.01
2018-10-21T15:30:37.099Z,60.01
2018-10-21T15:33:06.715Z,59.50
2018-10-21T15:35:36.483Z,59.60
2018-10-21T15:38:06.360Z,58.92
2018-10-21T15:40:36.208Z,59.36
2018-10-21T15:43:05.915Z,59.35
2018-10-21T15:45:35.664Z,59.38
2018-10-21T15:48:05.396Z,59.42
2018-10-21T15:50:35.146Z,59.53
2018-10-21T15:53:05.076Z,61.45
2018-10-21T15:55:34.994Z,60.16
2018-10-21T15:58:04.808Z,60.19
2018-10-21T16:00:34.457Z,60.73
2018-10-21T16:03:03.985Z,61.16
2018-10-21T16:05:33.666Z,60.41
2018-10-21T16:08:04.143Z,61.43
2018-10-21T16:10:34.811Z,61.19
2018-10-21T16:13:05.057Z,60.31
2018-10-21T16:15:34.813Z,60.32
2018-10-21T16:18:04.525Z,60.65
2018-10-21T16:20:34.377Z,61.19
2018-10-21T16:23:04.046Z,61.63
2018-10-21T16:25:34.351Z,62.79
2018-10-21T16:28:04.754Z,62.48
2018-10-21T16:30:34.567Z,62.51
2018-10-21T16:33:04.391Z,62.98
2018-10-21T16:35:34.117Z,61.84
2018-10-21T16:38:03.927Z,61.41
2018-10-21T16:40:33.732Z,61.57
2018-10-21T16:43:03.468Z,62.79
2018-10-21T16:45:33.202Z,63.25
2018-10-21T16:48:03.032Z,62.58
2018-10-21T16:50:32.752Z,63.50
2018-10-21T16:53:02.647Z,62.34
2018-10-21T16:55:32.381Z,61.51
2018-10-21T16:58:02.198Z,62.02
2018-10-21T17:00:32.087Z,62.23
2018-10-21T17:03:01.706Z,61.67
2018-10-21T17:05:31.547Z,61.12
2018-10-21T17:08:01.480Z,60.17
2018-10-21T17:10:31.917Z,61.02
2018-10-21T17:13:02.578Z,62.19
2018-10-21T17:15:32.423Z,61.31
2018-10-21T17:18:02.366Z,60.18
2018-10-21T17:20:32.108Z,60.13
2018-10-21T17:23:01.726Z,61.50
2018-10-21T17:25:32.111Z,61.94
2018-10-21T17:28:02.011Z,62.41
2018-10-21T17:30:31.776Z,62.33
2018-10-21T17:33:02.631Z,61.12
2018-10-21T17:35:33.164Z,62.18
2018-10-21T17:38:02.808Z,61.07
2018-10-21T17:40:32.595Z,61.20
2018-10-21T17:43:02.303Z,62.04
2018-10-21T17:45:32.090Z,61.90
2018-10-21T17:48:01.891Z,61.03
2018-10-21T17:50:31.690Z,61.17
2018-10-21T17:53:01.309Z,61.10
2018-10-21T17:55:30.954Z,61.37
2018-10-21T17:58:00.975Z,61.25
2018-10-21T18:00:30.572Z,61.54
2018-10-21T18:03:00.368Z,61.36
2018-10-21T18:05:30.181Z,61.73
2018-10-21T18:07:59.896Z,61.13
2018-10-21T18:10:29.639Z,61.32
2018-10-21T18:13:00.984Z,61.92
2018-10-21T18:15:31.330Z,61.30
2018-10-21T18:18:01.216Z,62.01
2018-10-21T18:20:30.859Z,62.58
2018-10-21T18:23:00.365Z,62.49
2018-10-21T18:25:30.344Z,62.69
2018-10-21T18:28:01.285Z,62.31
2018-10-21T18:30:30.971Z,62.74
2018-10-21T18:33:00.780Z,61.62
2018-10-21T18:35:30.505Z,62.41
2018-10-21T18:38:00.254Z,61.10
2018-10-21T18:40:30.082Z,60.89
2018-10-21T18:42:59.812Z,60.97
2018-10-21T18:45:29.545Z,61.35
2018-10-21T18:47:59.349Z,61.28
2018-10-21T18:50:28.999Z,61.05
2018-10-21T18:52:58.617Z,62.79
2018-10-21T18:55:28.312Z,60.63
2018-10-21T18:57:58.075Z,60.91
2018-10-21T19:00:27.867Z,61.09
2018-10-21T19:02:57.531Z,60.31
2018-10-21T19:05:27.292Z,60.06
2018-10-21T19:07:56.973Z,59.89
2018-10-21T19:10:26.834Z,60.58
2018-10-21T19:13:00.053Z,60.73
2018-10-21T19:15:26.618Z,60.79
2018-10-21T19:17:56.372Z,60.54
2018-10-21T19:20:26.269Z,60.65
2018-10-21T19:22:55.911Z,60.34
2018-10-21T19:25:25.727Z,61.23
2018-10-21T19:27:55.412Z,61.27
2018-10-21T19:30:25.148Z,61.03
2018-10-21T19:32:55.011Z,60.71
2018-10-21T19:35:24.702Z,60.82
2018-10-21T19:37:54.446Z,61.38
2018-10-21T19:40:24.195Z,60.83
2018-10-21T19:42:53.865Z,61.57
2018-10-21T19:45:23.684Z,59.78
2018-10-21T19:47:53.286Z,60.30
2018-10-21T19:50:22.970Z,61.06
2018-10-21T19:52:52.577Z,60.71
2018-10-21T19:55:22.206Z,60.67
2018-10-21T19:57:51.952Z,60.65
2018-10-21T20:00:21.776Z,60.75
2018-10-21T20:02:51.483Z,61.17
2018-10-21T20:05:21.268Z,60.72
2018-10-21T20:07:51.048Z,60.71
2018-10-21T20:10:20.874Z,60.58
2018-10-21T20:12:51.465Z,61.00
2018-10-21T20:15:21.200Z,61.74
2018-10-21T20:17:51.726Z,61.94
2018-10-21T20:20:21.531Z,61.29
2018-10-21T20:22:51.117Z,61.63
2018-10-21T20:25:20.807Z,60.93
2018-10-21T20:27:50.628Z,61.07
2018-10-21T20:30:22.321Z,63.20
2018-10-21T20:32:52.250Z,62.50
2018-10-21T20:35:22.031Z,63.11
2018-10-21T20:37:51.662Z,62.02
2018-10-21T20:40:21.427Z,61.73
2018-10-21T20:42:51.145Z,61.89
2018-10-21T20:45:20.877Z,61.42
2018-10-21T20:47:52.078Z,62.21
2018-10-21T20:50:21.574Z,65.55
2018-10-21T20:52:51.198Z,67.67
2018-10-21T20:55:21.044Z,68.21
2018-10-21T20:57:50.646Z,68.87
2018-10-21T21:00:20.361Z,67.38
2018-10-21T21:02:50.231Z,67.21
2018-10-21T21:05:19.840Z,69.87
2018-10-21T21:07:49.458Z,68.88
2018-10-21T21:10:19.255Z,69.50
2018-10-21T21:12:48.975Z,68.40
2018-10-21T21:15:18.623Z,68.41
2018-10-21T21:17:48.557Z,66.62
2018-10-21T21:20:18.346Z,66.56
2018-10-21T21:22:51.432Z,67.34
2018-10-21T21:25:21.161Z,69.31
2018-10-21T21:27:50.963Z,69.22
2018-10-21T21:30:20.527Z,67.84
2018-10-21T21:32:50.157Z,67.89
2018-10-21T21:35:20.195Z,67.54
2018-10-21T21:37:49.892Z,68.23
2018-10-21T21:40:19.706Z,67.33
2018-10-21T21:42:49.415Z,67.14
2018-10-21T21:45:19.557Z,69.38
2018-10-21T21:47:49.317Z,67.57
2018-10-21T21:50:19.155Z,67.36
2018-10-21T21:52:50.949Z,67.39
2018-10-21T21:55:20.707Z,67.82
2018-10-21T21:57:50.379Z,68.55
2018-10-21T22:00:20.240Z,70.09
2018-10-21T22:02:50.005Z,72.73
2018-10-21T22:05:19.633Z,73.53
2018-10-21T22:07:49.204Z,72.73
2018-10-21T22:10:19.205Z,74.91
2018-10-21T22:12:48.683Z,77.33
2018-10-21T22:15:18.274Z,77.88
2018-10-21T22:17:48.470Z,79.28
2018-10-21T22:20:18.177Z,82.37
2018-10-21T22:22:47.964Z,83.80
2018-10-21T22:25:17.760Z,82.90
2018-10-21T22:27:47.537Z,82.64
2018-10-21T22:30:17.397Z,84.92
2018-10-21T22:32:46.961Z,84.88
2018-10-21T22:35:16.747Z,84.05
2018-10-21T22:37:46.602Z,85.86
2018-10-21T22:40:17.234Z,85.99
2018-10-21T22:42:47.059Z,86.90
2018-10-21T22:45:16.932Z,87.42
2018-10-21T22:47:46.896Z,87.44
2018-10-21T22:50:16.643Z,86.23
2018-10-21T22:52:46.585Z,84.86
2018-10-21T22:55:16.292Z,84.71
2018-10-21T22:57:45.947Z,86.08
2018-10-21T23:00:15.910Z,86.89
2018-10-21T23:02:49.639Z,87.85
2018-10-21T23:05:19.433Z,88.29
2018-10-21T23:07:49.254Z,88.83
2018-10-21T23:10:19.287Z,88.61
2018-10-21T23:12:49.085Z,88.29
2018-10-21T23:15:18.748Z,88.19
2018-10-21T23:17:48.613Z,88.37
2018-10-21T23:20:18.361Z,89.10
2018-10-21T23:22:48.059Z,88.97
2018-10-21T23:25:17.837Z,88.32
2018-10-21T23:27:47.645Z,87.94
2018-10-21T23:30:18.601Z,88.81
2018-10-21T23:32:48.217Z,88.77
2018-10-21T23:35:17.977Z,89.24
2018-10-21T23:37:47.552Z,89.82
2018-10-21T23:40:17.365Z,90.20
2018-10-21T23:42:47.160Z,90.68
2018-10-21T23:45:16.937Z,91.33
2018-10-21T23:47:46.800Z,91.93
2018-10-21T23:50:16.580Z,92.69
2018-10-21T23:52:46.248Z,92.46
2018-10-21T23:55:16.875Z,92.55
2018-10-21T23:57:47.341Z,92.92
